Time;durP1;ratioP1;P1;durP2;ratioP2;P2;SDS_P1;SDS_P2;PMS_P1;PMS_P2;Temp;Humidity;BMP_temperature;BMP_pressure;BME280_temperature;BME280_humidity;BME280_pressure;Samples;Min_cycle;Max_cycle;Signal;HPM_P1;HPM_P2
2023/08/05 00:01:03;;;;;;;2.65;1.45;;;14.30;99.90;;;;;;5014285;28;20034;-72
2023/08/05 00:03:29;;;;;;;2.30;1.30;;;14.20;99.90;;;;;;5013415;28;20507;-72
2023/08/05 00:05:55;;;;;;;3.88;1.63;;;14.20;99.90;;;;;;5013728;28;20056;-72
2023/08/05 00:08:21;;;;;;;2.28;1.00;;;14.20;99.90;;;;;;5013863;28;20034;-72
2023/08/05 00:10:47;;;;;;;2.25;1.00;;;14.20;99.90;;;;;;5013943;28;20065;-72
2023/08/05 00:13:13;;;;;;;3.22;1.30;;;14.20;99.90;;;;;;5014387;28;20034;-72
2023/08/05 00:15:39;;;;;;;2.40;1.23;;;14.20;99.90;;;;;;5012524;28;20377;-72
2023/08/05 00:18:05;;;;;;;2.67;1.27;;;14.20;99.90;;;;;;5013605;28;20065;-72
2023/08/05 00:20:30;;;;;;;2.10;1.20;;;14.20;99.90;;;;;;5013666;28;20026;-72
2023/08/05 00:22:56;;;;;;;2.33;0.95;;;14.20;99.90;;;;;;5014014;28;20042;-72
2023/08/05 00:25:22;;;;;;;2.50;1.10;;;14.20;99.90;;;;;;5013738;28;20034;-72
2023/08/05 00:27:48;;;;;;;1.73;1.08;;;14.20;99.90;;;;;;5013592;28;20026;-72
2023/08/05 00:30:13;;;;;;;1.88;1.00;;;14.20;99.90;;;;;;5013938;28;20026;-72
2023/08/05 00:32:39;;;;;;;1.30;0.80;;;14.30;99.90;;;;;;5013615;28;20037;-72
2023/08/05 00:35:06;;;;;;;2.58;1.30;;;14.20;99.90;;;;;;5013540;28;20507;-72
2023/08/05 00:37:33;;;;;;;2.67;1.30;;;14.20;99.90;;;;;;5013467;28;20034;-72
2023/08/05 00:39:59;;;;;;;2.08;1.00;;;14.10;99.90;;;;;;5013480;28;20030;-72
2023/08/05 00:42:28;;;;;;;3.03;1.10;;;14.00;99.90;;;;;;5013480;28;20033;-72
2023/08/05 00:44:54;;;;;;;2.50;0.98;;;13.90;99.90;;;;;;5013545;28;20049;-71
2023/08/05 00:47:20;;;;;;;3.67;1.35;;;13.80;99.90;;;;;;5012294;28;20514;-72
2023/08/05 00:49:49;;;;;;;2.22;0.90;;;13.80;99.90;;;;;;5013642;28;20374;-71
2023/08/05 00:52:16;;;;;;;3.55;0.90;;;13.70;99.90;;;;;;5012250;28;20053;-72
2023/08/05 00:54:42;;;;;;;2.60;1.10;;;13.70;99.90;;;;;;5014365;28;20392;-71
2023/08/05 00:57:11;;;;;;;3.22;1.20;;;13.70;99.90;;;;;;5012090;28;20084;-72
2023/08/05 00:59:36;;;;;;;2.13;1.10;;;13.60;99.90;;;;;;5013220;28;20417;-72
2023/08/05 01:02:02;;;;;;;2.28;1.00;;;13.70;99.90;;;;;;5012100;28;20105;-72
2023/08/05 01:04:28;;;;;;;2.10;1.00;;;13.60;99.90;;;;;;5013308;28;20485;-72
2023/08/05 01:06:55;;;;;;;2.22;0.90;;;13.60;99.90;;;;;;5022562;28;20041;-72
2023/08/05 01:09:21;;;;;;;2.22;1.00;;;13.60;99.90;;;;;;5019106;28;20072;-72
2023/08/05 01:11:47;;;;;;;1.50;0.80;;;13.60;99.90;;;;;;5016633;28;20546;-72
2023/08/05 01:14:13;;;;;;;2.30;0.90;;;13.60;99.90;;;;;;5019084;28;20046;-72
2023/08/05 01:16:38;;;;;;;2.25;0.98;;;13.60;99.90;;;;;;5016549;28;20432;-71
2023/08/05 01:19:08;;;;;;;3.67;0.90;;;13.70;99.90;;;;;;5017139;28;20064;-71
2023/08/05 01:21:59;;;;;;;2.03;1.00;;;13.70;99.90;;;;;;5016730;28;20026;-72
2023/08/05 01:24:48;;;;;;;3.10;1.00;;;13.70;99.90;;;;;;5015877;28;20096;-71
2023/08/05 01:27:14;;;;;;;2.03;0.80;;;13.70;99.90;;;;;;5016467;28;20291;-71
2023/08/05 01:29:39;;;;;;;2.90;1.00;;;13.70;99.90;;;;;;5018673;28;20049;-71
2023/08/05 01:32:07;;;;;;;2.88;0.90;;;13.70;99.90;;;;;;5016519;28;20029;-72
2023/08/05 01:34:33;;;;;;;1.75;0.90;;;13.70;99.90;;;;;;5016561;28;20026;-72
2023/08/05 01:36:58;;;;;;;1.42;0.82;;;13.60;99.90;;;;;;5016400;28;20481;-72
2023/08/05 01:39:24;;;;;;;3.85;1.10;;;13.50;99.90;;;;;;5014560;28;20050;-72
2023/08/05 01:41:49;;;;;;;2.10;0.80;;;13.40;99.90;;;;;;5014448;28;20440;-71
2023/08/05 01:44:15;;;;;;;2.60;1.10;;;13.30;99.90;;;;;;5014451;28;20036;-71
2023/08/05 01:46:41;;;;;;;1.30;0.80;;;13.20;99.90;;;;;;5014392;28;20022;-71
2023/08/05 01:49:06;;;;;;;2.22;1.00;;;13.10;99.90;;;;;;5013004;28;20029;-72
2023/08/05 01:51:32;;;;;;;2.20;0.85;;;13.10;99.90;;;;;;5015208;28;20026;-72
2023/08/05 01:53:58;;;;;;;1.90;1.08;;;13.00;99.90;;;;;;5016342;28;20034;-72
2023/08/05 01:56:23;;;;;;;2.30;1.00;;;13.00;99.90;;;;;;5016307;28;20034;-72
2023/08/05 01:58:49;;;;;;;1.98;0.80;;;13.00;99.90;;;;;;5016103;28;20030;-72
2023/08/05 02:01:15;;;;;;;1.85;1.10;;;12.90;99.90;;;;;;5016082;28;20037;-72
2023/08/05 02:03:40;;;;;;;2.72;0.93;;;13.00;99.90;;;;;;5016150;28;20026;-72
2023/08/05 02:06:06;;;;;;;1.67;1.00;;;13.00;99.90;;;;;;4999397;28;20073;-72
2023/08/05 02:08:31;;;;;;;3.25;1.05;;;13.00;99.90;;;;;;4996369;28;20022;-72
2023/08/05 02:10:57;;;;;;;2.38;1.10;;;13.00;99.90;;;;;;4996415;28;20038;-72
2023/08/05 02:13:23;;;;;;;3.00;1.60;;;12.90;99.90;;;;;;4995267;28;20042;-72
2023/08/05 02:15:48;;;;;;;5.28;2.42;;;12.90;99.90;;;;;;4996341;28;20459;-72
2023/08/05 02:18:14;;;;;;;2.85;1.50;;;12.90;99.90;;;;;;4996118;28;20066;-72
2023/08/05 02:20:40;;;;;;;4.18;1.05;;;12.80;99.90;;;;;;4995901;28;20084;-72
2023/08/05 02:23:05;;;;;;;3.35;1.10;;;12.80;99.90;;;;;;4994971;28;20027;-72
2023/08/05 02:25:31;;;;;;;2.40;1.00;;;12.80;99.90;;;;;;4996160;28;20113;-72
2023/08/05 02:27:57;;;;;;;3.38;1.20;;;12.70;99.90;;;;;;4995600;28;20026;-72
2023/08/05 02:30:22;;;;;;;3.25;1.27;;;12.70;99.90;;;;;;4996116;28;20086;-72
2023/08/05 02:32:48;;;;;;;1.85;0.98;;;12.70;99.90;;;;;;4996008;28;20026;-72
2023/08/05 02:35:14;;;;;;;3.38;1.33;;;12.70;99.90;;;;;;4994824;28;20034;-72
2023/08/05 02:37:39;;;;;;;2.90;0.90;;;12.60;99.90;;;;;;4995927;28;20030;-72
2023/08/05 02:40:05;;;;;;;1.75;1.00;;;12.60;99.90;;;;;;4996048;28;20499;-72
2023/08/05 02:42:31;;;;;;;1.77;0.90;;;12.70;99.90;;;;;;4994607;28;20058;-72
2023/08/05 02:44:57;;;;;;;3.25;1.00;;;12.70;99.90;;;;;;4995842;28;20488;-72
2023/08/05 02:47:23;;;;;;;3.00;0.85;;;12.70;99.90;;;;;;4995970;28;20038;-72
2023/08/05 02:49:48;;;;;;;2.78;1.00;;;12.80;99.90;;;;;;4995713;28;20393;-72
2023/08/05 02:52:14;;;;;;;2.15;1.05;;;12.90;99.90;;;;;;4995111;28;20488;-72
2023/08/05 02:54:39;;;;;;;2.30;0.90;;;12.90;99.90;;;;;;4995629;28;20035;-72
2023/08/05 02:57:05;;;;;;;2.28;1.08;;;12.90;99.90;;;;;;4995569;28;20030;-72
2023/08/05 02:59:31;;;;;;;1.90;1.02;;;12.90;99.90;;;;;;4995464;28;20391;-72
2023/08/05 03:01:56;;;;;;;1.80;0.80;;;12.90;99.90;;;;;;4994249;28;20377;-72
2023/08/05 03:04:22;;;;;;;3.47;1.00;;;12.80;99.90;;;;;;4995761;28;20034;-72
2023/08/05 03:06:48;;;;;;;2.35;0.95;;;12.70;99.90;;;;;;4995454;28;20604;-72
2023/08/05 03:09:13;;;;;;;2.47;0.93;;;12.60;99.90;;;;;;4994111;28;20034;-72
2023/08/05 03:11:39;;;;;;;3.22;1.30;;;12.60;99.90;;;;;;4995279;28;20041;-72
2023/08/05 03:14:05;;;;;;;2.00;1.00;;;12.50;99.90;;;;;;4993941;28;20061;-72
2023/08/05 03:16:30;;;;;;;2.80;1.45;;;12.50;99.90;;;;;;4995210;28;20501;-72
2023/08/05 03:18:56;;;;;;;2.50;1.10;;;12.40;99.90;;;;;;4994929;28;20566;-72
2023/08/05 03:21:22;;;;;;;2.67;1.20;;;12.40;99.90;;;;;;4995031;28;20037;-72
2023/08/05 03:23:47;;;;;;;3.58;1.23;;;12.40;99.90;;;;;;4995048;28;20030;-72
2023/08/05 03:26:13;;;;;;;2.42;1.13;;;12.40;99.90;;;;;;4995017;28;20401;-72
2023/08/05 03:28:39;;;;;;;3.03;1.15;;;12.40;99.90;;;;;;4994838;28;20425;-72
2023/08/05 03:31:05;;;;;;;2.28;1.10;;;12.30;99.90;;;;;;4994644;28;20022;-72
2023/08/05 03:33:30;;;;;;;1.83;1.08;;;12.40;99.90;;;;;;4995235;28;20528;-72
2023/08/05 03:35:56;;;;;;;2.55;1.08;;;12.30;99.90;;;;;;4994818;28;20030;-72
2023/08/05 03:38:22;;;;;;;2.28;1.00;;;12.40;99.90;;;;;;4994736;28;20023;-72
2023/08/05 03:40:47;;;;;;;2.30;1.30;;;12.30;99.90;;;;;;4994631;28;20058;-72
2023/08/05 03:43:13;;;;;;;4.82;1.42;;;12.40;99.90;;;;;;4994948;28;20089;-72
2023/08/05 03:45:39;;;;;;;2.45;1.25;;;12.30;99.90;;;;;;4994757;28;20031;-72
2023/08/05 03:48:05;;;;;;;1.95;1.10;;;12.30;99.90;;;;;;4994548;28;20034;-72
2023/08/05 03:50:31;;;;;;;1.50;1.08;;;12.30;99.90;;;;;;4993490;28;20440;-72
2023/08/05 03:52:57;;;;;;;2.42;1.00;;;12.30;99.90;;;;;;4994798;28;20030;-72
2023/08/05 03:55:26;;;;;;;2.20;1.00;;;12.40;99.90;;;;;;4994508;28;20085;-72
2023/08/05 03:57:52;;;;;;;2.28;1.10;;;12.40;99.90;;;;;;4994577;28;20041;-72
2023/08/05 04:00:18;;;;;;;2.22;1.10;;;12.40;99.90;;;;;;4994377;28;20043;-72
2023/08/05 04:02:44;;;;;;;2.08;1.13;;;12.40;99.90;;;;;;4994372;28;20030;-72
2023/08/05 04:05:09;;;;;;;1.90;0.82;;;12.40;99.90;;;;;;4994321;28;20026;-72
2023/08/05 04:07:35;;;;;;;2.20;1.00;;;12.40;99.90;;;;;;4993197;28;20022;-72
2023/08/05 04:10:02;;;;;;;2.22;1.00;;;12.40;99.90;;;;;;4994646;28;20489;-72
2023/08/05 04:12:28;;;;;;;3.05;1.20;;;12.40;99.90;;;;;;4993859;28;20034;-72
2023/08/05 04:14:57;;;;;;;1.85;1.00;;;12.50;99.90;;;;;;4995446;28;20502;-72
2023/08/05 04:17:23;;;;;;;2.00;1.10;;;12.50;99.90;;;;;;4994151;28;20058;-72
2023/08/05 04:19:50;;;;;;;1.70;0.90;;;12.40;99.90;;;;;;4994458;28;20168;-72
2023/08/05 04:22:19;;;;;;;2.13;0.90;;;12.40;99.90;;;;;;5004549;28;20045;-72
2023/08/05 04:24:45;;;;;;;1.25;0.80;;;12.40;99.90;;;;;;5013775;28;20026;-72
2023/08/05 04:27:10;;;;;;;1.50;0.80;;;12.40;99.90;;;;;;5013998;28;20076;-72
2023/08/05 04:29:36;;;;;;;2.97;1.10;;;12.40;99.90;;;;;;5013533;28;20044;-72
2023/08/05 04:32:03;;;;;;;2.40;1.00;;;12.40;99.90;;;;;;5013851;28;20025;-72
2023/08/05 04:34:33;;;;;;;2.38;1.00;;;12.40;99.90;;;;;;5013671;28;20076;-72
2023/08/05 04:37:15;;;;;;;2.28;1.10;;;12.40;99.90;;;;;;4996811;28;20042;-72
2023/08/05 04:39:41;;;;;;;4.15;1.17;;;12.50;99.90;;;;;;5013496;28;20076;-72
2023/08/05 04:42:06;;;;;;;1.88;0.80;;;12.50;99.90;;;;;;5013532;28;20496;-72
2023/08/05 04:44:32;;;;;;;1.50;0.75;;;12.60;99.90;;;;;;5017352;28;20064;-72
2023/08/05 04:46:58;;;;;;;1.33;0.70;;;12.60;99.90;;;;;;5018134;28;20029;-72
2023/08/05 04:49:24;;;;;;;1.70;1.00;;;12.60;99.90;;;;;;5017333;28;20069;-72
2023/08/05 04:51:49;;;;;;;2.10;1.02;;;12.60;99.90;;;;;;5017465;28;20085;-72
2023/08/05 04:54:15;;;;;;;1.95;1.08;;;12.60;99.90;;;;;;5016445;28;20061;-72
2023/08/05 04:56:41;;;;;;;1.58;0.80;;;12.60;99.90;;;;;;5018025;28;20026;-72
2023/08/05 04:59:06;;;;;;;1.73;0.90;;;12.60;99.90;;;;;;5016101;28;20072;-72
2023/08/05 05:01:32;;;;;;;2.45;1.10;;;12.60;99.90;;;;;;5017364;28;20045;-72
2023/08/05 05:03:58;;;;;;;2.45;0.95;;;12.60;99.90;;;;;;5017381;28;20099;-72
2023/08/05 05:06:24;;;;;;;1.67;1.00;;;12.60;99.90;;;;;;5017240;28;20030;-72
2023/08/05 05:08:49;;;;;;;3.92;1.30;;;12.60;99.90;;;;;;5016146;28;20030;-72
2023/08/05 05:11:15;;;;;;;1.55;0.93;;;12.60;99.90;;;;;;5015841;28;20036;-72
2023/08/05 05:13:43;;;;;;;2.05;1.25;;;12.50;99.90;;;;;;5017633;28;20495;-72
2023/08/05 05:16:10;;;;;;;2.75;1.38;;;12.50;99.90;;;;;;5017093;28;20073;-72
2023/08/05 05:18:36;;;;;;;2.45;1.23;;;12.50;99.90;;;;;;5016805;28;20080;-72
2023/08/05 05:21:02;;;;;;;2.03;0.77;;;12.50;99.90;;;;;;5017140;28;20034;-72
2023/08/05 05:23:27;;;;;;;2.47;1.08;;;12.50;99.90;;;;;;5016903;28;20030;-72
2023/08/05 05:25:53;;;;;;;4.25;2.05;;;12.50;99.90;;;;;;5016843;28;20065;-72
2023/08/05 05:28:19;;;;;;;3.60;2.13;;;12.50;99.90;;;;;;5016754;28;20030;-72
2023/08/05 05:30:44;;;;;;;5.18;2.95;;;12.50;99.90;;;;;;5016786;28;20030;-72
2023/08/05 05:33:11;;;;;;;2.97;1.67;;;12.60;99.90;;;;;;5016685;28;20069;-72
2023/08/05 05:35:37;;;;;;;2.90;1.80;;;12.60;99.90;;;;;;5017057;28;20117;-72
2023/08/05 05:38:02;;;;;;;9.18;4.60;;;12.60;99.90;;;;;;5015777;28;20061;-72
2023/08/05 05:40:28;;;;;;;14.23;8.43;;;12.70;99.90;;;;;;5015305;28;20034;-72
2023/08/05 05:42:54;;;;;;;4.10;2.30;;;12.70;99.90;;;;;;5016542;28;20030;-72
2023/08/05 05:45:21;;;;;;;2.53;1.25;;;12.70;99.90;;;;;;5016553;28;20026;-72
2023/08/05 05:47:46;;;;;;;1.77;0.95;;;12.70;99.90;;;;;;5016420;28;20030;-72
2023/08/05 05:50:12;;;;;;;2.15;0.98;;;12.70;99.90;;;;;;5016685;28;20029;-72
2023/08/05 05:52:38;;;;;;;1.48;0.80;;;12.70;99.90;;;;;;5016700;28;20056;-72
2023/08/05 05:55:04;;;;;;;2.45;0.80;;;12.70;99.90;;;;;;5015908;28;20030;-72
2023/08/05 05:57:30;;;;;;;2.00;1.02;;;12.70;99.90;;;;;;5016227;28;20034;-72
2023/08/05 05:59:58;;;;;;;1.83;1.02;;;12.70;99.90;;;;;;5016134;28;20030;-72
2023/08/05 06:02:24;;;;;;;1.95;1.10;;;12.80;99.90;;;;;;5016254;28;20029;-72
2023/08/05 06:04:50;;;;;;;1.38;0.80;;;12.80;99.90;;;;;;5016665;28;20105;-72
2023/08/05 06:07:16;;;;;;;1.63;1.00;;;12.80;99.90;;;;;;5016125;28;20101;-72
2023/08/05 06:09:41;;;;;;;1.95;1.00;;;12.90;99.90;;;;;;5015998;28;20464;-72
2023/08/05 06:12:10;;;;;;;1.58;0.80;;;12.90;99.90;;;;;;5016090;28;20104;-72
2023/08/05 06:14:36;;;;;;;2.40;0.93;;;13.00;99.90;;;;;;5016001;28;20414;-72
2023/08/05 06:17:02;;;;;;;2.03;1.10;;;13.00;99.90;;;;;;5015944;28;20057;-72
2023/08/05 06:19:28;;;;;;;2.35;1.00;;;13.00;99.90;;;;;;5015792;28;20092;-72
2023/08/05 06:21:54;;;;;;;1.88;1.00;;;13.10;99.90;;;;;;5015862;28;20033;-72
2023/08/05 06:24:19;;;;;;;1.35;0.85;;;13.10;99.90;;;;;;5016030;28;20041;-72
2023/08/05 06:26:45;;;;;;;1.30;0.85;;;13.10;99.90;;;;;;5016272;28;20468;-72
2023/08/05 06:29:11;;;;;;;1.73;1.00;;;13.10;99.90;;;;;;5014526;28;20080;-72
2023/08/05 06:31:36;;;;;;;1.00;0.60;;;13.20;99.90;;;;;;5015930;28;20392;-72
2023/08/05 06:34:02;;;;;;;1.85;0.90;;;13.20;99.90;;;;;;5015715;28;20400;-72
2023/08/05 06:36:27;;;;;;;1.20;0.70;;;13.20;99.90;;;;;;5014476;28;20407;-72
2023/08/05 06:38:53;;;;;;;1.88;0.90;;;13.20;99.90;;;;;;5015484;28;20036;-72
2023/08/05 06:41:19;;;;;;;2.65;0.75;;;13.30;99.90;;;;;;5015403;28;20034;-72
2023/08/05 06:43:45;;;;;;;1.85;0.90;;;13.30;99.90;;;;;;5015407;28;20026;-72
2023/08/05 06:46:11;;;;;;;1.45;0.70;;;13.30;99.90;;;;;;5015483;28;20029;-72
2023/08/05 06:48:36;;;;;;;2.45;1.00;;;13.40;99.90;;;;;;5015562;28;20472;-72
2023/08/05 06:51:02;;;;;;;1.30;0.70;;;13.40;99.90;;;;;;5015590;28;20504;-72
2023/08/05 06:53:28;;;;;;;1.50;0.70;;;13.40;99.90;;;;;;5015201;28;20061;-72
2023/08/05 06:56:00;;;;;;;2.25;0.95;;;13.40;99.90;;;;;;5015258;28;20040;-72
2023/08/05 06:58:26;;;;;;;1.33;0.63;;;13.40;99.90;;;;;;5015156;28;20109;-72
2023/08/05 07:00:52;;;;;;;1.52;0.80;;;13.40;99.90;;;;;;5015235;28;20106;-72
2023/08/05 07:03:18;;;;;;;1.17;0.70;;;13.40;99.90;;;;;;5013835;28;20026;-72
2023/08/05 07:05:44;;;;;;;1.52;0.70;;;13.40;99.90;;;;;;5014848;28;20022;-72
2023/08/05 07:08:10;;;;;;;1.35;0.80;;;13.30;99.90;;;;;;5014108;28;20030;-72
2023/08/05 07:10:36;;;;;;;2.58;0.80;;;13.30;99.90;;;;;;5014962;28;20032;-72
2023/08/05 07:13:05;;;;;;;2.47;0.60;;;13.30;99.90;;;;;;5014905;28;20109;-72
2023/08/05 07:15:35;;;;;;;2.00;0.90;;;13.30;99.90;;;;;;5013561;28;20064;-72
2023/08/05 07:18:01;;;;;;;1.50;0.80;;;13.30;99.90;;;;;;5015000;28;20049;-72
2023/08/05 07:20:26;;;;;;;1.63;0.65;;;13.40;99.90;;;;;;5013785;28;20026;-72
2023/08/05 07:22:52;;;;;;;1.45;0.88;;;13.40;99.90;;;;;;5014952;28;20022;-72
2023/08/05 07:25:18;;;;;;;1.17;0.60;;;13.40;99.90;;;;;;4997097;28;20030;-72
2023/08/05 07:27:43;;;;;;;1.05;0.63;;;13.50;99.90;;;;;;5014356;28;20037;-71
2023/08/05 07:30:09;;;;;;;1.23;0.75;;;13.50;99.90;;;;;;4994204;28;20038;-72
2023/08/05 07:32:35;;;;;;;1.92;0.75;;;13.50;99.90;;;;;;4995014;28;20019;-72
2023/08/05 07:35:01;;;;;;;1.00;0.63;;;13.50;99.90;;;;;;4994912;28;20090;-72
2023/08/05 07:37:26;;;;;;;1.30;0.70;;;13.50;99.90;;;;;;4993407;28;20062;-72
2023/08/05 07:39:52;;;;;;;1.77;0.70;;;13.50;99.90;;;;;;4995113;28;20030;-72
2023/08/05 07:42:22;;;;;;;1.27;0.55;;;13.50;99.90;;;;;;4994851;28;20022;-72
2023/08/05 07:44:51;;;;;;;2.00;0.77;;;13.50;99.90;;;;;;4994975;28;20022;-72
2023/08/05 07:47:17;;;;;;;1.98;0.70;;;13.50;99.90;;;;;;4994854;28;20085;-72
2023/08/05 07:49:43;;;;;;;1.30;0.70;;;13.50;99.90;;;;;;4994873;28;20027;-72
2023/08/05 07:52:08;;;;;;;0.98;0.43;;;13.50;99.90;;;;;;4994564;28;20057;-72
2023/08/05 07:54:34;;;;;;;3.35;0.57;;;13.50;99.90;;;;;;4994627;28;20065;-72
2023/08/05 07:57:00;;;;;;;1.38;0.77;;;13.50;99.90;;;;;;4994557;28;20038;-72
2023/08/05 07:59:27;;;;;;;1.52;0.95;;;13.50;99.90;;;;;;4994342;28;20081;-72
2023/08/05 08:01:54;;;;;;;1.48;0.80;;;13.60;99.90;;;;;;5002866;28;20034;-72
2023/08/05 08:04:20;;;;;;;1.17;0.60;;;13.60;99.90;;;;;;4994393;28;20025;-72
2023/08/05 08:06:47;;;;;;;1.83;0.70;;;13.70;99.90;;;;;;4994594;28;20393;-72
2023/08/05 08:09:13;;;;;;;1.77;0.43;;;13.80;99.90;;;;;;4993392;28;20109;-72
2023/08/05 08:11:40;;;;;;;1.38;0.63;;;13.90;99.90;;;;;;4994851;28;20053;-72
2023/08/05 08:14:06;;;;;;;1.67;0.80;;;13.90;99.90;;;;;;4994459;28;20042;-72
2023/08/05 08:16:32;;;;;;;1.50;0.70;;;14.00;99.90;;;;;;4994249;28;20571;-72
2023/08/05 08:18:58;;;;;;;1.50;0.90;;;14.10;99.90;;;;;;4993640;28;20049;-72
2023/08/05 08:21:24;;;;;;;1.63;0.60;;;14.10;99.90;;;;;;4994105;28;20069;-72
2023/08/05 08:23:50;;;;;;;1.25;0.70;;;14.10;99.90;;;;;;4994474;28;20450;-72
2023/08/05 08:26:15;;;;;;;1.40;0.70;;;14.10;99.90;;;;;;4994116;28;20432;-72
2023/08/05 08:28:41;;;;;;;1.05;0.50;;;14.20;99.90;;;;;;5009175;28;20028;-72
2023/08/05 08:31:07;;;;;;;0.98;0.60;;;14.20;99.90;;;;;;4994299;28;20037;-72
2023/08/05 08:33:33;;;;;;;1.27;0.57;;;14.30;99.90;;;;;;4994237;28;20027;-72
2023/08/05 08:35:58;;;;;;;0.85;0.45;;;14.30;99.90;;;;;;4994347;28;20034;-72
2023/08/05 08:38:25;;;;;;;1.05;0.68;;;14.40;99.90;;;;;;4993963;28;20034;-72
2023/08/05 08:40:52;;;;;;;0.73;0.47;;;14.40;99.90;;;;;;4993894;28;20035;-72
2023/08/05 08:43:19;;;;;;;0.88;0.47;;;14.40;99.90;;;;;;4994024;28;20374;-72
2023/08/05 08:45:47;;;;;;;1.17;0.60;;;14.50;99.90;;;;;;4993922;28;20060;-72
2023/08/05 08:48:15;;;;;;;1.08;0.50;;;14.50;99.90;;;;;;4994049;28;20023;-72
2023/08/05 08:50:42;;;;;;;1.45;0.68;;;14.60;99.90;;;;;;4994149;28;20026;-72
2023/08/05 08:53:10;;;;;;;1.65;0.80;;;14.70;99.90;;;;;;4993875;28;20038;-72
2023/08/05 08:55:36;;;;;;;1.58;0.68;;;14.70;99.90;;;;;;4992672;28;20374;-72
2023/08/05 08:58:02;;;;;;;1.08;0.80;;;14.60;99.90;;;;;;4993762;28;20081;-72
2023/08/05 09:00:28;;;;;;;1.40;0.60;;;14.60;99.90;;;;;;4994031;28;20392;-72
2023/08/05 09:02:54;;;;;;;1.73;0.70;;;14.60;99.90;;;;;;5010144;28;20113;-72
2023/08/05 09:05:21;;;;;;;1.08;0.63;;;14.60;99.90;;;;;;4993727;28;20018;-72
2023/08/05 09:07:49;;;;;;;0.50;0.30;;;14.60;99.90;;;;;;5001877;28;20388;-71
2023/08/05 09:10:15;;;;;;;0.65;0.47;;;14.60;99.90;;;;;;5008042;28;20033;-72
2023/08/05 09:12:41;;;;;;;0.80;0.35;;;14.60;99.90;;;;;;5013481;28;20030;-72
2023/08/05 09:15:07;;;;;;;0.75;0.30;;;14.60;99.90;;;;;;5013252;28;20034;-72
2023/08/05 09:17:38;;;;;;;0.40;0.30;;;14.70;99.90;;;;;;5011877;28;20065;-71
2023/08/05 09:20:11;;;;;;;1.75;0.40;;;14.70;99.90;;;;;;5011027;28;20068;-71
2023/08/05 09:22:37;;;;;;;1.60;0.30;;;14.80;99.90;;;;;;5012681;28;20022;-71
2023/08/05 09:25:03;;;;;;;0.73;0.20;;;14.90;99.90;;;;;;5009314;28;20088;-71
2023/08/05 09:27:46;;;;;;;0.93;0.50;;;15.00;99.90;;;;;;4997805;28;20109;-72
2023/08/05 09:30:16;;;;;;;0.60;0.30;;;15.10;99.90;;;;;;4999404;28;20026;-72
2023/08/05 09:32:46;;;;;;;0.65;0.40;;;15.20;99.90;;;;;;5012401;28;20022;-72
2023/08/05 09:35:13;;;;;;;0.82;0.45;;;15.20;99.90;;;;;;5016492;28;20030;-72
2023/08/05 09:37:46;;;;;;;0.85;0.40;;;15.30;99.90;;;;;;5005593;28;20023;-72
2023/08/05 09:40:24;;;;;;;0.50;0.20;;;15.30;99.90;;;;;;4995955;28;20037;-72
2023/08/05 09:42:57;;;;;;;0.57;0.28;;;15.40;99.90;;;;;;5011304;28;20018;-72
2023/08/05 09:45:25;;;;;;;2.55;0.40;;;15.30;99.90;;;;;;5010850;28;20031;-72
2023/08/05 09:48:09;;;;;;;1.15;0.55;;;15.30;99.90;;;;;;5002676;28;20026;-72
2023/08/05 09:50:37;;;;;;;0.77;0.40;;;15.30;99.90;;;;;;5012478;28;20503;-72
2023/08/05 09:53:08;;;;;;;1.00;0.43;;;15.30;99.90;;;;;;5012368;28;20038;-72
2023/08/05 09:55:38;;;;;;;0.57;0.30;;;15.20;99.90;;;;;;5013835;28;20507;-72
2023/08/05 09:58:07;;;;;;;1.33;0.47;;;15.20;99.90;;;;;;5034188;28;20076;-72
2023/08/05 10:00:35;;;;;;;0.60;0.40;;;15.20;99.90;;;;;;5033964;28;20434;-72
2023/08/05 10:03:04;;;;;;;0.60;0.40;;;15.20;99.90;;;;;;5032390;28;20051;-72
2023/08/05 10:05:30;;;;;;;0.63;0.30;;;15.10;99.90;;;;;;5033590;28;20021;-72
2023/08/05 10:07:58;;;;;;;0.82;0.40;;;15.10;99.90;;;;;;5033743;28;20097;-72
2023/08/05 10:10:24;;;;;;;0.80;0.60;;;15.10;99.90;;;;;;5033936;28;20488;-72
2023/08/05 10:13:16;;;;;;;0.93;0.43;;;15.20;99.90;;;;;;5034968;28;20025;-72
2023/08/05 10:15:46;;;;;;;0.80;0.40;;;15.20;99.90;;;;;;5005340;28;20044;-72
2023/08/05 10:18:14;;;;;;;0.93;0.60;;;15.20;99.90;;;;;;5017442;28;20112;-72
2023/08/05 10:20:40;;;;;;;1.00;0.50;;;15.20;99.90;;;;;;5003813;28;20496;-72
2023/08/05 10:23:13;;;;;;;1.02;0.60;;;15.20;99.90;;;;;;4999550;28;20042;-72
2023/08/05 10:25:46;;;;;;;0.90;0.40;;;15.20;99.90;;;;;;4996239;28;20105;-72
2023/08/05 10:28:25;;;;;;;0.85;0.40;;;15.10;99.90;;;;;;5009470;28;20024;-72
2023/08/05 10:30:53;;;;;;;0.80;0.40;;;15.10;99.90;;;;;;5013847;28;20029;-72
2023/08/05 10:33:19;;;;;;;0.50;0.30;;;15.10;99.90;;;;;;5010335;28;20396;-72
2023/08/05 10:35:46;;;;;;;0.75;0.30;;;15.10;99.90;;;;;;5015053;28;20400;-72
2023/08/05 10:38:16;;;;;;;0.82;0.50;;;15.10;99.90;;;;;;5013786;28;20030;-72
2023/08/05 10:41:01;;;;;;;0.65;0.40;;;15.10;99.90;;;;;;5001067;28;20034;-72
2023/08/05 10:43:33;;;;;;;1.10;0.38;;;15.00;99.90;;;;;;4995237;28;20110;-71
2023/08/05 10:46:07;;;;;;;4.07;0.90;;;15.10;99.90;;;;;;4994292;28;20026;-71
2023/08/05 10:48:44;;;;;;;2.70;1.13;;;15.10;99.90;;;;;;5008800;28;20013;-72
2023/08/05 10:51:15;;;;;;;2.17;0.80;;;15.20;99.90;;;;;;5014290;28;20025;-72
2023/08/05 10:53:47;;;;;;;;;;;15.30;99.90;;;;;;5015450;28;20481;-71
2023/08/05 10:56:13;;;;;;;;;;;15.40;99.90;;;;;;5015657;28;19912;-72
2023/08/05 10:58:50;;;;;;;1.40;0.50;;;15.50;99.90;;;;;;5015166;28;19905;-72
2023/08/05 11:01:16;;;;;;;0.40;0.20;;;15.70;99.90;;;;;;5013266;28;20025;-72
2023/08/05 11:03:42;;;;;;;0.63;0.35;;;15.80;99.90;;;;;;5006555;28;20117;-72
2023/08/05 11:06:10;;;;;;;0.90;0.40;;;15.90;99.90;;;;;;5007625;28;20097;-72
2023/08/05 11:08:37;;;;;;;0.30;0.20;;;15.90;99.90;;;;;;5004312;28;20381;-72
2023/08/05 11:11:10;;;;;;;0.57;0.30;;;16.00;99.90;;;;;;5003963;28;20022;-72
2023/08/05 11:13:37;;;;;;;0.55;0.30;;;16.00;99.90;;;;;;5005370;28;20124;-72
2023/08/05 11:16:11;;;;;;;0.65;0.30;;;15.90;99.90;;;;;;4996933;28;20026;-72
2023/08/05 11:18:39;;;;;;;0.52;0.30;;;15.90;99.90;;;;;;5007566;28;20033;-73
2023/08/05 11:21:07;;;;;;;0.52;0.20;;;15.80;99.90;;;;;;5007316;28;20461;-73
2023/08/05 11:23:35;;;;;;;1.23;0.30;;;15.80;99.90;;;;;;5014739;28;20435;-73
2023/08/05 11:26:01;;;;;;;0.70;0.38;;;15.80;99.90;;;;;;5014946;28;20100;-73
2023/08/05 11:28:28;;;;;;;0.75;0.30;;;15.80;99.90;;;;;;4997482;28;20010;-73
2023/08/05 11:30:54;;;;;;;0.60;0.30;;;15.90;99.90;;;;;;4996563;28;20121;-73
2023/08/05 11:33:21;;;;;;;1.60;0.47;;;15.80;99.90;;;;;;5004260;28;20121;-73
2023/08/05 11:35:48;;;;;;;0.57;0.30;;;15.90;99.90;;;;;;4997226;28;20030;-73
2023/08/05 11:38:18;;;;;;;1.58;0.55;;;16.00;99.90;;;;;;4994756;28;20026;-73
2023/08/05 11:40:49;;;;;;;0.55;0.30;;;16.10;99.90;;;;;;4995817;28;20034;-73
2023/08/05 11:43:15;;;;;;;;;;;16.20;99.90;;;;;;4998956;28;20026;-72
2023/08/05 11:45:41;;;;;;;0.80;0.40;;;16.30;99.90;;;;;;5014383;28;19996;-73
2023/08/05 11:48:19;;;;;;;0.52;0.30;;;16.40;99.90;;;;;;5017352;28;20076;-73
2023/08/05 11:50:46;;;;;;;0.57;0.30;;;16.40;99.90;;;;;;4996518;28;20065;-73
2023/08/05 11:53:12;;;;;;;0.50;0.30;;;16.50;99.90;;;;;;4997280;28;20026;-73
2023/08/05 11:55:39;;;;;;;0.63;0.30;;;16.50;99.90;;;;;;5014732;28;20053;-73
2023/08/05 11:58:06;;;;;;;0.63;0.35;;;16.50;99.90;;;;;;5014105;28;20036;-73
2023/08/05 12:00:33;;;;;;;0.90;0.38;;;16.40;99.90;;;;;;5012442;28;20030;-73
2023/08/05 12:02:59;;;;;;;0.40;0.30;;;16.40;99.90;;;;;;5004039;28;20042;-73
2023/08/05 12:05:25;;;;;;;0.52;0.20;;;16.30;99.90;;;;;;4992902;28;20077;-73
2023/08/05 12:07:53;;;;;;;0.50;0.30;;;16.30;99.90;;;;;;5006445;28;20420;-73
2023/08/05 12:10:20;;;;;;;0.77;0.40;;;16.30;99.90;;;;;;4994497;28;20026;-73
2023/08/05 12:12:50;;;;;;;0.10;0.10;;;16.20;99.90;;;;;;5001709;28;20084;-73
2023/08/05 12:15:26;;;;;;;0.43;0.28;;;16.20;99.90;;;;;;5012642;28;20053;-73
2023/08/05 12:17:55;;;;;;;0.73;0.40;;;16.20;99.90;;;;;;5013782;28;20029;-73
2023/08/05 12:20:23;;;;;;;0.20;0.20;;;16.20;99.90;;;;;;5013476;28;20075;-73
2023/08/05 12:22:49;;;;;;;0.70;0.38;;;16.30;99.90;;;;;;5013689;28;20448;-73
2023/08/05 12:25:15;;;;;;;0.50;0.30;;;16.30;99.90;;;;;;5012625;28;20495;-73
2023/08/05 12:27:41;;;;;;;0.40;0.30;;;16.30;99.90;;;;;;5014182;28;20030;-73
2023/08/05 12:30:08;;;;;;;0.40;0.20;;;16.40;99.90;;;;;;5013765;28;20018;-73
2023/08/05 12:32:34;;;;;;;0.95;0.40;;;16.40;99.90;;;;;;5013587;28;20091;-73
2023/08/05 12:35:03;;;;;;;1.00;0.50;;;16.40;99.90;;;;;;5013438;28;20030;-73
2023/08/05 12:37:29;;;;;;;0.90;0.50;;;16.30;99.90;;;;;;5013676;28;20053;-73
2023/08/05 12:39:55;;;;;;;1.38;0.68;;;16.20;99.90;;;;;;5002609;28;20108;-73
2023/08/05 12:42:21;;;;;;;1.38;0.60;;;16.20;99.90;;;;;;4992549;28;20030;-73
2023/08/05 12:44:46;;;;;;;1.25;0.70;;;16.10;99.90;;;;;;4993881;28;20041;-73
2023/08/05 12:47:12;;;;;;;1.00;0.68;;;16.00;99.90;;;;;;4998673;28;20050;-73